sensor_id;sensor_type;location;lat;lon;timestamp;P1;durP1;ratioP1;P2;durP2;ratioP2
3916;SDS011;1973;50.518;7.318;2023-04-06T00:02:20;5.87;;;4.90;;
3916;SDS011;1973;50.518;7.318;2023-04-06T00:04:47;5.60;;;4.60;;
3916;SDS011;1973;50.518;7.318;2023-04-06T00:07:13;6.07;;;4.00;;
3916;SDS011;1973;50.518;7.318;2023-04-06T00:09:39;5.33;;;4.00;;
3916;SDS011;1973;50.518;7.318;2023-04-06T00:12:06;7.43;;;4.00;;
3916;SDS011;1973;50.518;7.318;2023-04-06T00:14:32;5.70;;;3.63;;
3916;SDS011;1973;50.518;7.318;2023-04-06T00:16:59;7.07;;;4.60;;
3916;SDS011;1973;50.518;7.318;2023-04-06T00:19:25;6.70;;;4.13;;
3916;SDS011;1973;50.518;7.318;2023-04-06T00:21:52;4.20;;;3.80;;
3916;SDS011;1973;50.518;7.318;2023-04-06T00:24:19;6.83;;;4.70;;
3916;SDS011;1973;50.518;7.318;2023-04-06T00:26:45;7.13;;;4.53;;
3916;SDS011;1973;50.518;7.318;2023-04-06T00:29:12;6.53;;;4.57;;
3916;SDS011;1973;50.518;7.318;2023-04-06T00:31:38;6.80;;;4.80;;
3916;SDS011;1973;50.518;7.318;2023-04-06T00:34:05;4.57;;;3.83;;
3916;SDS011;1973;50.518;7.318;2023-04-06T00:36:32;5.53;;;4.00;;
3916;SDS011;1973;50.518;7.318;2023-04-06T00:38:58;6.13;;;4.93;;
3916;SDS011;1973;50.518;7.318;2023-04-06T00:41:25;4.57;;;4.13;;
3916;SDS011;1973;50.518;7.318;2023-04-06T00:43:51;8.00;;;4.80;;
3916;SDS011;1973;50.518;7.318;2023-04-06T00:46:18;4.50;;;4.00;;
3916;SDS011;1973;50.518;7.318;2023-04-06T00:48:44;6.63;;;4.87;;
3916;SDS011;1973;50.518;7.318;2023-04-06T00:51:11;8.57;;;4.97;;
3916;SDS011;1973;50.518;7.318;2023-04-06T00:53:37;5.77;;;4.97;;
3916;SDS011;1973;50.518;7.318;2023-04-06T00:56:04;8.07;;;4.30;;
3916;SDS011;1973;50.518;7.318;2023-04-06T00:58:31;8.73;;;5.60;;
3916;SDS011;1973;50.518;7.318;2023-04-06T01:00:57;5.90;;;4.77;;
3916;SDS011;1973;50.518;7.318;2023-04-06T01:03:24;5.57;;;4.43;;
3916;SDS011;1973;50.518;7.318;2023-04-06T06:45:38;12.40;;;8.03;;
3916;SDS011;1973;50.518;7.318;2023-04-06T06:48:04;13.90;;;9.23;;
3916;SDS011;1973;50.518;7.318;2023-04-06T06:50:31;11.80;;;9.13;;
3916;SDS011;1973;50.518;7.318;2023-04-06T06:52:57;13.83;;;8.83;;
3916;SDS011;1973;50.518;7.318;2023-04-06T06:55:24;11.70;;;9.20;;
3916;SDS011;1973;50.518;7.318;2023-04-06T06:57:52;13.43;;;9.83;;
3916;SDS011;1973;50.518;7.318;2023-04-06T07:00:19;15.20;;;10.47;;
3916;SDS011;1973;50.518;7.318;2023-04-06T07:02:48;12.63;;;10.20;;
3916;SDS011;1973;50.518;7.318;2023-04-06T07:05:15;10.90;;;8.87;;
3916;SDS011;1973;50.518;7.318;2023-04-06T07:07:49;12.93;;;10.10;;
3916;SDS011;1973;50.518;7.318;2023-04-06T07:10:15;13.80;;;10.50;;
3916;SDS011;1973;50.518;7.318;2023-04-06T07:12:42;15.00;;;10.80;;
3916;SDS011;1973;50.518;7.318;2023-04-06T07:15:08;11.80;;;8.73;;
3916;SDS011;1973;50.518;7.318;2023-04-06T07:17:35;12.70;;;9.87;;
3916;SDS011;1973;50.518;7.318;2023-04-06T07:20:02;13.47;;;10.20;;
3916;SDS011;1973;50.518;7.318;2023-04-06T07:22:28;15.13;;;10.60;;
3916;SDS011;1973;50.518;7.318;2023-04-06T07:24:55;13.63;;;9.63;;
3916;SDS011;1973;50.518;7.318;2023-04-06T07:27:21;13.30;;;10.03;;
3916;SDS011;1973;50.518;7.318;2023-04-06T07:29:48;13.60;;;10.53;;
3916;SDS011;1973;50.518;7.318;2023-04-06T07:32:14;15.63;;;11.13;;
3916;SDS011;1973;50.518;7.318;2023-04-06T07:34:41;13.90;;;10.07;;
3916;SDS011;1973;50.518;7.318;2023-04-06T07:37:07;15.13;;;10.20;;
3916;SDS011;1973;50.518;7.318;2023-04-06T07:39:34;13.60;;;10.03;;
3916;SDS011;1973;50.518;7.318;2023-04-06T07:42:01;15.90;;;10.27;;
3916;SDS011;1973;50.518;7.318;2023-04-06T07:44:27;13.80;;;9.63;;
3916;SDS011;1973;50.518;7.318;2023-04-06T07:46:54;13.57;;;9.53;;
3916;SDS011;1973;50.518;7.318;2023-04-06T07:49:21;12.07;;;9.63;;
3916;SDS011;1973;50.518;7.318;2023-04-06T07:51:49;13.90;;;10.30;;
3916;SDS011;1973;50.518;7.318;2023-04-06T07:54:15;12.10;;;9.13;;
3916;SDS011;1973;50.518;7.318;2023-04-06T07:56:41;15.50;;;10.00;;
3916;SDS011;1973;50.518;7.318;2023-04-06T07:59:08;13.83;;;10.97;;
3916;SDS011;1973;50.518;7.318;2023-04-06T08:01:35;14.27;;;10.30;;
3916;SDS011;1973;50.518;7.318;2023-04-06T08:04:01;14.00;;;9.13;;
3916;SDS011;1973;50.518;7.318;2023-04-06T08:06:28;12.10;;;9.80;;
3916;SDS011;1973;50.518;7.318;2023-04-06T08:08:55;11.90;;;10.03;;
3916;SDS011;1973;50.518;7.318;2023-04-06T08:11:22;20.67;;;10.30;;
3916;SDS011;1973;50.518;7.318;2023-04-06T08:13:48;11.60;;;10.27;;
3916;SDS011;1973;50.518;7.318;2023-04-06T08:16:15;12.47;;;9.60;;
3916;SDS011;1973;50.518;7.318;2023-04-06T08:18:41;15.53;;;9.73;;
3916;SDS011;1973;50.518;7.318;2023-04-06T08:21:08;15.93;;;11.13;;
3916;SDS011;1973;50.518;7.318;2023-04-06T08:23:34;14.13;;;11.80;;
3916;SDS011;1973;50.518;7.318;2023-04-06T08:26:01;13.57;;;10.40;;
3916;SDS011;1973;50.518;7.318;2023-04-06T08:28:27;12.87;;;10.73;;
3916;SDS011;1973;50.518;7.318;2023-04-06T08:30:53;15.20;;;11.17;;
3916;SDS011;1973;50.518;7.318;2023-04-06T08:33:20;15.20;;;10.40;;
3916;SDS011;1973;50.518;7.318;2023-04-06T08:35:46;16.37;;;11.57;;
3916;SDS011;1973;50.518;7.318;2023-04-06T08:38:13;15.77;;;10.60;;
3916;SDS011;1973;50.518;7.318;2023-04-06T08:40:40;14.83;;;10.37;;
3916;SDS011;1973;50.518;7.318;2023-04-06T08:43:08;14.27;;;10.63;;
3916;SDS011;1973;50.518;7.318;2023-04-06T08:45:38;18.00;;;10.80;;
3916;SDS011;1973;50.518;7.318;2023-04-06T08:48:06;17.43;;;11.40;;
3916;SDS011;1973;50.518;7.318;2023-04-06T08:50:35;14.53;;;10.77;;
3916;SDS011;1973;50.518;7.318;2023-04-06T08:53:02;13.70;;;10.57;;
3916;SDS011;1973;50.518;7.318;2023-04-06T08:55:29;13.00;;;10.30;;
3916;SDS011;1973;50.518;7.318;2023-04-06T08:57:56;15.03;;;11.10;;
3916;SDS011;1973;50.518;7.318;2023-04-06T09:00:23;18.33;;;11.50;;
3916;SDS011;1973;50.518;7.318;2023-04-06T09:02:51;15.50;;;11.87;;
3916;SDS011;1973;50.518;7.318;2023-04-06T09:05:21;18.53;;;12.10;;
3916;SDS011;1973;50.518;7.318;2023-04-06T09:07:51;21.20;;;12.53;;
3916;SDS011;1973;50.518;7.318;2023-04-06T09:10:18;15.57;;;11.30;;
3916;SDS011;1973;50.518;7.318;2023-04-06T09:12:45;15.40;;;11.10;;
3916;SDS011;1973;50.518;7.318;2023-04-06T09:15:21;17.90;;;11.07;;
3916;SDS011;1973;50.518;7.318;2023-04-06T09:17:50;19.80;;;10.67;;
3916;SDS011;1973;50.518;7.318;2023-04-06T09:20:22;17.40;;;11.97;;
3916;SDS011;1973;50.518;7.318;2023-04-06T09:22:54;17.30;;;11.47;;
3916;SDS011;1973;50.518;7.318;2023-04-06T09:25:22;17.00;;;11.50;;
3916;SDS011;1973;50.518;7.318;2023-04-06T09:27:59;17.33;;;10.13;;
3916;SDS011;1973;50.518;7.318;2023-04-06T09:30:27;17.30;;;12.00;;
3916;SDS011;1973;50.518;7.318;2023-04-06T09:32:57;14.13;;;10.23;;
3916;SDS011;1973;50.518;7.318;2023-04-06T09:35:24;16.70;;;10.50;;
3916;SDS011;1973;50.518;7.318;2023-04-06T09:37:53;14.47;;;10.97;;
3916;SDS011;1973;50.518;7.318;2023-04-06T09:40:20;13.50;;;9.43;;
3916;SDS011;1973;50.518;7.318;2023-04-06T09:42:48;13.20;;;9.70;;
3916;SDS011;1973;50.518;7.318;2023-04-06T09:45:18;14.10;;;10.43;;
3916;SDS011;1973;50.518;7.318;2023-04-06T09:47:45;14.63;;;10.83;;
3916;SDS011;1973;50.518;7.318;2023-04-06T09:50:13;16.33;;;10.47;;
3916;SDS011;1973;50.518;7.318;2023-04-06T09:52:41;16.10;;;10.87;;
3916;SDS011;1973;50.518;7.318;2023-04-06T09:55:22;14.47;;;10.20;;
3916;SDS011;1973;50.518;7.318;2023-04-06T09:57:53;22.27;;;12.07;;
3916;SDS011;1973;50.518;7.318;2023-04-06T10:00:24;17.43;;;10.73;;
3916;SDS011;1973;50.518;7.318;2023-04-06T10:02:59;16.40;;;11.03;;
3916;SDS011;1973;50.518;7.318;2023-04-06T10:05:57;17.80;;;10.90;;
3916;SDS011;1973;50.518;7.318;2023-04-06T10:08:29;16.40;;;10.00;;
3916;SDS011;1973;50.518;7.318;2023-04-06T10:10:58;15.57;;;10.10;;
3916;SDS011;1973;50.518;7.318;2023-04-06T10:13:26;17.27;;;10.67;;
3916;SDS011;1973;50.518;7.318;2023-04-06T10:15:54;15.77;;;9.53;;
3916;SDS011;1973;50.518;7.318;2023-04-06T10:18:21;16.70;;;10.10;;
3916;SDS011;1973;50.518;7.318;2023-04-06T10:20:49;16.50;;;10.53;;
3916;SDS011;1973;50.518;7.318;2023-04-06T10:23:22;15.73;;;10.30;;
3916;SDS011;1973;50.518;7.318;2023-04-06T10:25:57;15.67;;;10.00;;
3916;SDS011;1973;50.518;7.318;2023-04-06T10:28:24;17.00;;;10.57;;
3916;SDS011;1973;50.518;7.318;2023-04-06T10:30:58;16.80;;;12.07;;
3916;SDS011;1973;50.518;7.318;2023-04-06T10:33:26;15.57;;;11.60;;
3916;SDS011;1973;50.518;7.318;2023-04-06T10:35:53;14.73;;;10.57;;
3916;SDS011;1973;50.518;7.318;2023-04-06T10:38:32;20.40;;;11.33;;
3916;SDS011;1973;50.518;7.318;2023-04-06T10:41:03;14.03;;;9.90;;
3916;SDS011;1973;50.518;7.318;2023-04-06T10:43:34;13.60;;;9.40;;
3916;SDS011;1973;50.518;7.318;2023-04-06T10:46:03;15.73;;;9.90;;
3916;SDS011;1973;50.518;7.318;2023-04-06T10:48:44;12.63;;;9.23;;
3916;SDS011;1973;50.518;7.318;2023-04-06T10:51:16;12.43;;;10.00;;
3916;SDS011;1973;50.518;7.318;2023-04-06T10:53:45;14.63;;;9.23;;
3916;SDS011;1973;50.518;7.318;2023-04-06T10:56:16;14.80;;;9.53;;
3916;SDS011;1973;50.518;7.318;2023-04-06T10:58:45;11.47;;;7.83;;
3916;SDS011;1973;50.518;7.318;2023-04-06T11:01:14;14.00;;;9.77;;
3916;SDS011;1973;50.518;7.318;2023-04-06T11:03:42;13.23;;;8.70;;
3916;SDS011;1973;50.518;7.318;2023-04-06T11:06:23;13.93;;;9.07;;
3916;SDS011;1973;50.518;7.318;2023-04-06T11:08:51;10.87;;;7.67;;
3916;SDS011;1973;50.518;7.318;2023-04-06T11:11:19;12.33;;;8.37;;
3916;SDS011;1973;50.518;7.318;2023-04-06T11:13:49;11.90;;;8.57;;
3916;SDS011;1973;50.518;7.318;2023-04-06T11:16:24;12.27;;;8.07;;
3916;SDS011;1973;50.518;7.318;2023-04-06T11:18:53;13.00;;;8.60;;
3916;SDS011;1973;50.518;7.318;2023-04-06T11:21:37;10.97;;;7.23;;
3916;SDS011;1973;50.518;7.318;2023-04-06T11:26:56;11.90;;;8.17;;
3916;SDS011;1973;50.518;7.318;2023-04-06T11:29:28;11.20;;;8.40;;
3916;SDS011;1973;50.518;7.318;2023-04-06T11:32:01;11.30;;;8.67;;
3916;SDS011;1973;50.518;7.318;2023-04-06T11:34:30;13.27;;;9.57;;
3916;SDS011;1973;50.518;7.318;2023-04-06T11:36:59;11.27;;;8.63;;
3916;SDS011;1973;50.518;7.318;2023-04-06T11:39:28;11.17;;;8.53;;
3916;SDS011;1973;50.518;7.318;2023-04-06T11:42:01;12.03;;;8.87;;
3916;SDS011;1973;50.518;7.318;2023-04-06T11:44:33;13.30;;;9.30;;
3916;SDS011;1973;50.518;7.318;2023-04-06T11:47:01;16.53;;;8.83;;
3916;SDS011;1973;50.518;7.318;2023-04-06T11:49:29;10.50;;;7.63;;
3916;SDS011;1973;50.518;7.318;2023-04-06T11:51:57;12.37;;;8.93;;
3916;SDS011;1973;50.518;7.318;2023-04-06T11:54:34;11.47;;;8.40;;
3916;SDS011;1973;50.518;7.318;2023-04-06T11:57:04;12.70;;;8.27;;
3916;SDS011;1973;50.518;7.318;2023-04-06T11:59:31;12.10;;;8.73;;
3916;SDS011;1973;50.518;7.318;2023-04-06T12:01:59;12.67;;;8.43;;
3916;SDS011;1973;50.518;7.318;2023-04-06T12:04:25;12.37;;;7.43;;
3916;SDS011;1973;50.518;7.318;2023-04-06T12:06:52;14.03;;;8.80;;
3916;SDS011;1973;50.518;7.318;2023-04-06T12:09:19;15.53;;;9.53;;
3916;SDS011;1973;50.518;7.318;2023-04-06T12:11:45;15.30;;;8.57;;
3916;SDS011;1973;50.518;7.318;2023-04-06T12:14:12;13.20;;;8.57;;
3916;SDS011;1973;50.518;7.318;2023-04-06T12:16:39;14.27;;;9.40;;
3916;SDS011;1973;50.518;7.318;2023-04-06T12:19:06;13.20;;;9.20;;
3916;SDS011;1973;50.518;7.318;2023-04-06T12:21:33;11.53;;;8.90;;
3916;SDS011;1973;50.518;7.318;2023-04-06T12:24:04;14.87;;;9.37;;
3916;SDS011;1973;50.518;7.318;2023-04-06T12:26:31;13.00;;;9.70;;
3916;SDS011;1973;50.518;7.318;2023-04-06T12:28:58;16.77;;;10.30;;
3916;SDS011;1973;50.518;7.318;2023-04-06T12:31:32;14.43;;;8.97;;
3916;SDS011;1973;50.518;7.318;2023-04-06T12:34:01;11.00;;;9.00;;
3916;SDS011;1973;50.518;7.318;2023-04-06T12:36:29;10.90;;;8.20;;
3916;SDS011;1973;50.518;7.318;2023-04-06T12:38:57;13.70;;;9.10;;
3916;SDS011;1973;50.518;7.318;2023-04-06T12:41:24;13.43;;;9.47;;
3916;SDS011;1973;50.518;7.318;2023-04-06T12:43:51;15.13;;;8.67;;
3916;SDS011;1973;50.518;7.318;2023-04-06T12:46:17;12.70;;;8.93;;
3916;SDS011;1973;50.518;7.318;2023-04-06T12:48:44;12.37;;;7.47;;
3916;SDS011;1973;50.518;7.318;2023-04-06T12:51:10;16.43;;;9.20;;
3916;SDS011;1973;50.518;7.318;2023-04-06T12:53:37;16.43;;;9.83;;
3916;SDS011;1973;50.518;7.318;2023-04-06T12:56:10;13.40;;;8.77;;
3916;SDS011;1973;50.518;7.318;2023-04-06T12:58:39;14.50;;;9.43;;
3916;SDS011;1973;50.518;7.318;2023-04-06T13:01:08;11.20;;;8.40;;
3916;SDS011;1973;50.518;7.318;2023-04-06T13:03:35;11.67;;;8.50;;
3916;SDS011;1973;50.518;7.318;2023-04-06T13:06:02;11.73;;;8.10;;
3916;SDS011;1973;50.518;7.318;2023-04-06T13:08:29;11.30;;;8.20;;
3916;SDS011;1973;50.518;7.318;2023-04-06T13:10:55;10.93;;;8.03;;
3916;SDS011;1973;50.518;7.318;2023-04-06T13:13:23;13.20;;;8.30;;
3916;SDS011;1973;50.518;7.318;2023-04-06T13:15:54;12.10;;;8.03;;
3916;SDS011;1973;50.518;7.318;2023-04-06T13:18:24;9.73;;;7.57;;
3916;SDS011;1973;50.518;7.318;2023-04-06T13:20:50;11.83;;;8.47;;
3916;SDS011;1973;50.518;7.318;2023-04-06T13:23:17;9.87;;;7.70;;
3916;SDS011;1973;50.518;7.318;2023-04-06T13:25:43;9.90;;;6.53;;
3916;SDS011;1973;50.518;7.318;2023-04-06T13:28:10;7.80;;;5.90;;
3916;SDS011;1973;50.518;7.318;2023-04-06T13:30:36;7.23;;;5.60;;
3916;SDS011;1973;50.518;7.318;2023-04-06T13:33:03;9.70;;;4.57;;
3916;SDS011;1973;50.518;7.318;2023-04-06T13:35:30;5.50;;;3.97;;
3916;SDS011;1973;50.518;7.318;2023-04-06T13:37:57;7.17;;;4.83;;
3916;SDS011;1973;50.518;7.318;2023-04-06T13:40:24;6.57;;;5.13;;
3916;SDS011;1973;50.518;7.318;2023-04-06T13:42:50;8.70;;;5.97;;
3916;SDS011;1973;50.518;7.318;2023-04-06T13:45:17;8.90;;;7.30;;
3916;SDS011;1973;50.518;7.318;2023-04-06T13:47:44;6.30;;;5.43;;
3916;SDS011;1973;50.518;7.318;2023-04-06T13:50:10;6.50;;;5.60;;
3916;SDS011;1973;50.518;7.318;2023-04-06T13:52:37;8.80;;;6.00;;
3916;SDS011;1973;50.518;7.318;2023-04-06T13:55:03;10.80;;;6.50;;
3916;SDS011;1973;50.518;7.318;2023-04-06T13:57:30;9.63;;;5.37;;
3916;SDS011;1973;50.518;7.318;2023-04-06T13:59:57;11.70;;;6.83;;
3916;SDS011;1973;50.518;7.318;2023-04-06T14:02:23;9.80;;;6.97;;
3916;SDS011;1973;50.518;7.318;2023-04-06T14:04:53;9.77;;;6.93;;
3916;SDS011;1973;50.518;7.318;2023-04-06T14:07:20;9.07;;;6.70;;
3916;SDS011;1973;50.518;7.318;2023-04-06T14:09:49;6.53;;;5.40;;
3916;SDS011;1973;50.518;7.318;2023-04-06T14:12:15;13.17;;;6.10;;
3916;SDS011;1973;50.518;7.318;2023-04-06T14:14:42;8.17;;;6.27;;
3916;SDS011;1973;50.518;7.318;2023-04-06T14:17:08;9.80;;;6.03;;
3916;SDS011;1973;50.518;7.318;2023-04-06T14:19:35;12.10;;;6.63;;
3916;SDS011;1973;50.518;7.318;2023-04-06T14:22:02;7.90;;;6.20;;
3916;SDS011;1973;50.518;7.318;2023-04-06T14:24:28;8.20;;;6.10;;
3916;SDS011;1973;50.518;7.318;2023-04-06T14:26:55;8.60;;;6.90;;
3916;SDS011;1973;50.518;7.318;2023-04-06T14:29:22;7.20;;;6.50;;
3916;SDS011;1973;50.518;7.318;2023-04-06T14:31:49;9.93;;;7.13;;
3916;SDS011;1973;50.518;7.318;2023-04-06T14:34:15;9.30;;;7.57;;
3916;SDS011;1973;50.518;7.318;2023-04-06T14:36:42;11.70;;;8.03;;
3916;SDS011;1973;50.518;7.318;2023-04-06T14:39:09;11.60;;;8.90;;
3916;SDS011;1973;50.518;7.318;2023-04-06T14:41:36;12.00;;;6.83;;
3916;SDS011;1973;50.518;7.318;2023-04-06T14:44:02;10.27;;;6.47;;
3916;SDS011;1973;50.518;7.318;2023-04-06T14:46:29;9.93;;;7.97;;
3916;SDS011;1973;50.518;7.318;2023-04-06T14:48:56;10.67;;;7.63;;
3916;SDS011;1973;50.518;7.318;2023-04-06T14:51:25;8.60;;;7.60;;
3916;SDS011;1973;50.518;7.318;2023-04-06T14:53:54;9.13;;;8.03;;
3916;SDS011;1973;50.518;7.318;2023-04-06T14:56:21;11.50;;;7.87;;
3916;SDS011;1973;50.518;7.318;2023-04-06T14:58:49;9.20;;;7.20;;
3916;SDS011;1973;50.518;7.318;2023-04-06T15:01:17;8.70;;;6.67;;
3916;SDS011;1973;50.518;7.318;2023-04-06T15:03:45;8.77;;;7.37;;
3916;SDS011;1973;50.518;7.318;2023-04-06T15:06:12;8.97;;;7.70;;
3916;SDS011;1973;50.518;7.318;2023-04-06T15:08:43;8.47;;;6.87;;
3916;SDS011;1973;50.518;7.318;2023-04-06T15:11:10;9.27;;;8.20;;
3916;SDS011;1973;50.518;7.318;2023-04-06T15:13:38;10.53;;;8.30;;
3916;SDS011;1973;50.518;7.318;2023-04-06T15:16:06;14.30;;;8.40;;
3916;SDS011;1973;50.518;7.318;2023-04-06T15:18:33;9.40;;;7.17;;
3916;SDS011;1973;50.518;7.318;2023-04-06T15:21:00;11.30;;;8.77;;
3916;SDS011;1973;50.518;7.318;2023-04-06T15:23:27;9.90;;;7.33;;
3916;SDS011;1973;50.518;7.318;2023-04-06T15:25:58;10.57;;;7.53;;
3916;SDS011;1973;50.518;7.318;2023-04-06T15:28:25;10.33;;;8.10;;
3916;SDS011;1973;50.518;7.318;2023-04-06T15:30:52;11.20;;;8.80;;
3916;SDS011;1973;50.518;7.318;2023-04-06T15:33:20;12.77;;;8.47;;
3916;SDS011;1973;50.518;7.318;2023-04-06T15:35:47;10.37;;;9.10;;
3916;SDS011;1973;50.518;7.318;2023-04-06T15:38:14;15.10;;;9.90;;
3916;SDS011;1973;50.518;7.318;2023-04-06T15:40:45;10.77;;;9.23;;
3916;SDS011;1973;50.518;7.318;2023-04-06T15:43:12;12.27;;;8.70;;
3916;SDS011;1973;50.518;7.318;2023-04-06T15:45:40;14.00;;;8.80;;
3916;SDS011;1973;50.518;7.318;2023-04-06T15:48:07;11.13;;;8.70;;
3916;SDS011;1973;50.518;7.318;2023-04-06T15:50:34;13.47;;;9.60;;
3916;SDS011;1973;50.518;7.318;2023-04-06T15:53:01;11.30;;;9.63;;
3916;SDS011;1973;50.518;7.318;2023-04-06T15:55:28;13.03;;;9.43;;
3916;SDS011;1973;50.518;7.318;2023-04-06T15:57:54;11.00;;;9.00;;
3916;SDS011;1973;50.518;7.318;2023-04-06T16:00:21;13.53;;;10.20;;
3916;SDS011;1973;50.518;7.318;2023-04-06T16:02:47;11.60;;;8.97;;
3916;SDS011;1973;50.518;7.318;2023-04-06T16:05:14;12.00;;;8.33;;
3916;SDS011;1973;50.518;7.318;2023-04-06T16:07:41;9.90;;;8.40;;
3916;SDS011;1973;50.518;7.318;2023-04-06T16:10:08;10.23;;;8.67;;
3916;SDS011;1973;50.518;7.318;2023-04-06T16:12:35;11.67;;;9.03;;
3916;SDS011;1973;50.518;7.318;2023-04-06T16:15:01;12.30;;;8.53;;
3916;SDS011;1973;50.518;7.318;2023-04-06T16:17:28;11.80;;;9.53;;
3916;SDS011;1973;50.518;7.318;2023-04-06T16:19:54;10.67;;;9.13;;
3916;SDS011;1973;50.518;7.318;2023-04-06T16:22:21;10.83;;;9.70;;
3916;SDS011;1973;50.518;7.318;2023-04-06T16:24:47;12.23;;;9.50;;
3916;SDS011;1973;50.518;7.318;2023-04-06T16:27:14;12.40;;;9.43;;
3916;SDS011;1973;50.518;7.318;2023-04-06T16:29:40;12.53;;;9.27;;
3916;SDS011;1973;50.518;7.318;2023-04-06T16:32:07;10.57;;;9.57;;
3916;SDS011;1973;50.518;7.318;2023-04-06T16:34:37;11.07;;;9.63;;
3916;SDS011;1973;50.518;7.318;2023-04-06T16:37:04;13.70;;;10.27;;
3916;SDS011;1973;50.518;7.318;2023-04-06T16:39:30;12.63;;;10.83;;
3916;SDS011;1973;50.518;7.318;2023-04-06T16:41:57;9.93;;;8.93;;
3916;SDS011;1973;50.518;7.318;2023-04-06T16:44:24;13.50;;;9.67;;
3916;SDS011;1973;50.518;7.318;2023-04-06T16:46:52;12.17;;;10.97;;
3916;SDS011;1973;50.518;7.318;2023-04-06T16:49:18;11.77;;;10.30;;
3916;SDS011;1973;50.518;7.318;2023-04-06T16:51:46;11.47;;;9.97;;
3916;SDS011;1973;50.518;7.318;2023-04-06T16:54:14;13.13;;;11.73;;
3916;SDS011;1973;50.518;7.318;2023-04-06T16:56:41;13.07;;;10.47;;
3916;SDS011;1973;50.518;7.318;2023-04-06T16:59:08;13.33;;;9.97;;
3916;SDS011;1973;50.518;7.318;2023-04-06T17:01:34;12.70;;;10.50;;
3916;SDS011;1973;50.518;7.318;2023-04-06T17:04:01;13.67;;;11.30;;
3916;SDS011;1973;50.518;7.318;2023-04-06T17:06:28;11.47;;;9.70;;
3916;SDS011;1973;50.518;7.318;2023-04-06T17:08:54;13.30;;;9.53;;
3916;SDS011;1973;50.518;7.318;2023-04-06T17:11:21;12.40;;;10.97;;
3916;SDS011;1973;50.518;7.318;2023-04-06T17:14:01;11.30;;;10.10;;
3916;SDS011;1973;50.518;7.318;2023-04-06T17:16:27;10.30;;;9.27;;
3916;SDS011;1973;50.518;7.318;2023-04-06T17:18:54;10.60;;;9.50;;
3916;SDS011;1973;50.518;7.318;2023-04-06T17:21:22;12.00;;;8.57;;
3916;SDS011;1973;50.518;7.318;2023-04-06T17:23:48;13.17;;;10.87;;
3916;SDS011;1973;50.518;7.318;2023-04-06T17:26:15;13.97;;;9.63;;
3916;SDS011;1973;50.518;7.318;2023-04-06T17:28:41;13.70;;;8.90;;
3916;SDS011;1973;50.518;7.318;2023-04-06T17:31:09;11.37;;;9.00;;
3916;SDS011;1973;50.518;7.318;2023-04-06T17:33:39;10.23;;;8.33;;
3916;SDS011;1973;50.518;7.318;2023-04-06T17:36:06;12.07;;;9.00;;
3916;SDS011;1973;50.518;7.318;2023-04-06T17:38:36;10.53;;;9.43;;
3916;SDS011;1973;50.518;7.318;2023-04-06T17:41:03;13.80;;;10.27;;
3916;SDS011;1973;50.518;7.318;2023-04-06T17:43:32;11.10;;;9.87;;
3916;SDS011;1973;50.518;7.318;2023-04-06T17:45:59;15.03;;;10.90;;
3916;SDS011;1973;50.518;7.318;2023-04-06T17:48:25;14.33;;;11.13;;
3916;SDS011;1973;50.518;7.318;2023-04-06T17:50:52;12.23;;;10.87;;
3916;SDS011;1973;50.518;7.318;2023-04-06T17:53:19;10.63;;;9.53;;
3916;SDS011;1973;50.518;7.318;2023-04-06T17:55:45;15.00;;;11.77;;
3916;SDS011;1973;50.518;7.318;2023-04-06T17:58:12;13.87;;;12.17;;
3916;SDS011;1973;50.518;7.318;2023-04-06T18:00:38;12.83;;;10.87;;
3916;SDS011;1973;50.518;7.318;2023-04-06T18:03:05;13.57;;;11.30;;
3916;SDS011;1973;50.518;7.318;2023-04-06T18:05:31;14.10;;;10.90;;
3916;SDS011;1973;50.518;7.318;2023-04-06T18:07:58;13.20;;;10.80;;
3916;SDS011;1973;50.518;7.318;2023-04-06T18:10:24;12.20;;;9.80;;
3916;SDS011;1973;50.518;7.318;2023-04-06T18:12:51;11.10;;;9.70;;
3916;SDS011;1973;50.518;7.318;2023-04-06T18:15:18;13.20;;;11.80;;
3916;SDS011;1973;50.518;7.318;2023-04-06T18:17:44;12.10;;;10.80;;
3916;SDS011;1973;50.518;7.318;2023-04-06T18:20:12;11.97;;;10.33;;
3916;SDS011;1973;50.518;7.318;2023-04-06T18:22:40;14.33;;;11.07;;
3916;SDS011;1973;50.518;7.318;2023-04-06T18:25:07;13.33;;;10.40;;
3916;SDS011;1973;50.518;7.318;2023-04-06T18:27:34;12.50;;;10.87;;
3916;SDS011;1973;50.518;7.318;2023-04-06T18:30:01;13.30;;;10.67;;
3916;SDS011;1973;50.518;7.318;2023-04-06T18:32:28;14.37;;;11.50;;
3916;SDS011;1973;50.518;7.318;2023-04-06T18:34:56;13.73;;;10.20;;
3916;SDS011;1973;50.518;7.318;2023-04-06T18:37:24;12.40;;;10.00;;
3916;SDS011;1973;50.518;7.318;2023-04-06T18:39:51;10.27;;;8.90;;
3916;SDS011;1973;50.518;7.318;2023-04-06T18:42:19;12.07;;;10.53;;
3916;SDS011;1973;50.518;7.318;2023-04-06T18:44:46;10.93;;;9.60;;
3916;SDS011;1973;50.518;7.318;2023-04-06T18:47:13;10.60;;;9.50;;
3916;SDS011;1973;50.518;7.318;2023-04-06T18:49:39;13.23;;;11.00;;
3916;SDS011;1973;50.518;7.318;2023-04-06T18:52:06;13.83;;;11.63;;
3916;SDS011;1973;50.518;7.318;2023-04-06T18:54:33;13.37;;;11.13;;
3916;SDS011;1973;50.518;7.318;2023-04-06T18:56:59;14.13;;;12.73;;
3916;SDS011;1973;50.518;7.318;2023-04-06T18:59:26;12.40;;;10.37;;
3916;SDS011;1973;50.518;7.318;2023-04-06T19:01:55;12.40;;;10.40;;
3916;SDS011;1973;50.518;7.318;2023-04-06T19:04:22;11.63;;;9.93;;
3916;SDS011;1973;50.518;7.318;2023-04-06T19:06:49;12.83;;;10.57;;
3916;SDS011;1973;50.518;7.318;2023-04-06T19:09:15;10.83;;;9.33;;
3916;SDS011;1973;50.518;7.318;2023-04-06T19:11:42;15.10;;;11.10;;
3916;SDS011;1973;50.518;7.318;2023-04-06T19:14:08;11.63;;;10.00;;
3916;SDS011;1973;50.518;7.318;2023-04-06T19:16:35;11.83;;;9.60;;
3916;SDS011;1973;50.518;7.318;2023-04-06T19:19:06;11.37;;;10.17;;
3916;SDS011;1973;50.518;7.318;2023-04-06T19:21:32;11.80;;;10.50;;
3916;SDS011;1973;50.518;7.318;2023-04-06T19:23:59;11.00;;;9.90;;
3916;SDS011;1973;50.518;7.318;2023-04-06T19:26:26;11.93;;;9.73;;
3916;SDS011;1973;50.518;7.318;2023-04-06T19:28:54;10.50;;;8.97;;
3916;SDS011;1973;50.518;7.318;2023-04-06T19:31:21;10.47;;;8.20;;
3916;SDS011;1973;50.518;7.318;2023-04-06T19:33:47;12.20;;;9.70;;
3916;SDS011;1973;50.518;7.318;2023-04-06T19:36:14;11.80;;;10.00;;
3916;SDS011;1973;50.518;7.318;2023-04-06T19:38:41;10.60;;;9.50;;
3916;SDS011;1973;50.518;7.318;2023-04-06T19:41:07;9.90;;;8.50;;
3916;SDS011;1973;50.518;7.318;2023-04-06T19:43:34;10.60;;;9.30;;
3916;SDS011;1973;50.518;7.318;2023-04-06T19:46:01;11.90;;;10.10;;
3916;SDS011;1973;50.518;7.318;2023-04-06T19:48:28;11.70;;;9.23;;
3916;SDS011;1973;50.518;7.318;2023-04-06T19:50:55;12.73;;;10.50;;
3916;SDS011;1973;50.518;7.318;2023-04-06T19:53:22;10.93;;;9.33;;
3916;SDS011;1973;50.518;7.318;2023-04-06T19:55:48;12.27;;;9.47;;
3916;SDS011;1973;50.518;7.318;2023-04-06T19:58:15;12.10;;;9.87;;
3916;SDS011;1973;50.518;7.318;2023-04-06T20:00:42;12.33;;;10.80;;
3916;SDS011;1973;50.518;7.318;2023-04-06T20:03:09;12.50;;;10.37;;
3916;SDS011;1973;50.518;7.318;2023-04-06T20:05:35;11.67;;;10.30;;
3916;SDS011;1973;50.518;7.318;2023-04-06T20:08:02;13.80;;;11.60;;
3916;SDS011;1973;50.518;7.318;2023-04-06T20:10:28;14.00;;;12.43;;
3916;SDS011;1973;50.518;7.318;2023-04-06T20:12:55;17.97;;;14.43;;
3916;SDS011;1973;50.518;7.318;2023-04-06T20:15:23;16.00;;;13.40;;
3916;SDS011;1973;50.518;7.318;2023-04-06T20:17:50;16.40;;;13.37;;
3916;SDS011;1973;50.518;7.318;2023-04-06T20:20:16;17.57;;;14.20;;
3916;SDS011;1973;50.518;7.318;2023-04-06T20:22:43;17.57;;;14.80;;
3916;SDS011;1973;50.518;7.318;2023-04-06T20:25:10;16.90;;;13.17;;
3916;SDS011;1973;50.518;7.318;2023-04-06T20:27:37;18.27;;;15.50;;
3916;SDS011;1973;50.518;7.318;2023-04-06T20:30:04;17.60;;;14.73;;
3916;SDS011;1973;50.518;7.318;2023-04-06T20:32:30;15.93;;;13.50;;
3916;SDS011;1973;50.518;7.318;2023-04-06T20:34:58;18.00;;;14.73;;
3916;SDS011;1973;50.518;7.318;2023-04-06T20:37:24;18.83;;;15.20;;
3916;SDS011;1973;50.518;7.318;2023-04-06T20:39:51;18.17;;;14.60;;
3916;SDS011;1973;50.518;7.318;2023-04-06T20:42:17;17.23;;;14.50;;
3916;SDS011;1973;50.518;7.318;2023-04-06T20:44:46;16.27;;;14.57;;